Forest, Texas
Current Conditions -  °F | °C
As of 1:35 PM on Thursday 27 Nov 2014 (Local Time) from KJSO Reporting Station
Clear Clear  
Wind Chill: 60°   Ceiling: Unl
Heat Index: 60°   Visibility: 10mi
Dew Point: 20°   Wind: 7mph
Humidity: 22%   Direction: 60°ENE
Pressure: 30.46"   Gusts: NA
Location:  31.6384°N, 95.0772°W
Report Text: KJSO 271935Z AUTO 06006KT 10SM CLR 15/M06 A3046 RMK AO2 T01551064
Loading
Personal Weather Stations






























Interactive Weather Map New forecast layout! Learn more

10-Day Weather Forecast

Advertisements
Track Severe Weather on mobile